sensor_id;sensor_type;location;lat;lon;timestamp;P1;durP1;ratioP1;P2;durP2;ratioP2
48727;SDS011;34527;45.618;5.130;2023-01-15T00:01:26;3.95;;;2.03;;
48727;SDS011;34527;45.618;5.130;2023-01-15T00:03:54;4.13;;;2.17;;
48727;SDS011;34527;45.618;5.130;2023-01-15T00:06:21;5.28;;;2.08;;
48727;SDS011;34527;45.618;5.130;2023-01-15T00:08:48;6.75;;;3.00;;
48727;SDS011;34527;45.618;5.130;2023-01-15T00:11:15;5.85;;;1.85;;
48727;SDS011;34527;45.618;5.130;2023-01-15T00:13:41;6.85;;;2.20;;
48727;SDS011;34527;45.618;5.130;2023-01-15T00:16:09;7.20;;;2.30;;
48727;SDS011;34527;45.618;5.130;2023-01-15T00:18:37;9.13;;;2.50;;
48727;SDS011;34527;45.618;5.130;2023-01-15T00:21:05;7.68;;;2.20;;
48727;SDS011;34527;45.618;5.130;2023-01-15T00:23:32;8.57;;;2.58;;
48727;SDS011;34527;45.618;5.130;2023-01-15T00:26:18;4.35;;;2.00;;
48727;SDS011;34527;45.618;5.130;2023-01-15T00:29:03;6.03;;;2.42;;
48727;SDS011;34527;45.618;5.130;2023-01-15T00:31:31;4.95;;;2.35;;
48727;SDS011;34527;45.618;5.130;2023-01-15T00:33:59;7.82;;;2.50;;
48727;SDS011;34527;45.618;5.130;2023-01-15T00:36:25;4.53;;;2.00;;
48727;SDS011;34527;45.618;5.130;2023-01-15T00:38:51;5.75;;;2.40;;
48727;SDS011;34527;45.618;5.130;2023-01-15T00:41:17;6.55;;;2.17;;
48727;SDS011;34527;45.618;5.130;2023-01-15T00:43:43;4.65;;;2.28;;
48727;SDS011;34527;45.618;5.130;2023-01-15T00:46:09;7.07;;;2.00;;
48727;SDS011;34527;45.618;5.130;2023-01-15T00:48:35;10.27;;;2.72;;
48727;SDS011;34527;45.618;5.130;2023-01-15T00:51:02;5.00;;;2.40;;
48727;SDS011;34527;45.618;5.130;2023-01-15T00:53:28;5.13;;;1.88;;
48727;SDS011;34527;45.618;5.130;2023-01-15T00:55:54;5.53;;;1.90;;
48727;SDS011;34527;45.618;5.130;2023-01-15T00:58:20;7.10;;;2.35;;
48727;SDS011;34527;45.618;5.130;2023-01-15T01:00:51;7.30;;;2.33;;
48727;SDS011;34527;45.618;5.130;2023-01-15T01:03:19;5.55;;;2.33;;
48727;SDS011;34527;45.618;5.130;2023-01-15T01:05:45;4.88;;;2.40;;
48727;SDS011;34527;45.618;5.130;2023-01-15T01:08:11;5.45;;;2.15;;
48727;SDS011;34527;45.618;5.130;2023-01-15T01:10:38;6.47;;;2.40;;
48727;SDS011;34527;45.618;5.130;2023-01-15T01:13:04;6.40;;;2.75;;
48727;SDS011;34527;45.618;5.130;2023-01-15T01:15:32;7.60;;;2.65;;
48727;SDS011;34527;45.618;5.130;2023-01-15T01:17:58;8.30;;;2.67;;
48727;SDS011;34527;45.618;5.130;2023-01-15T01:20:24;5.75;;;2.30;;
48727;SDS011;34527;45.618;5.130;2023-01-15T01:22:51;9.05;;;2.55;;
48727;SDS011;34527;45.618;5.130;2023-01-15T01:25:17;5.03;;;2.58;;
48727;SDS011;34527;45.618;5.130;2023-01-15T01:27:44;4.38;;;2.13;;
48727;SDS011;34527;45.618;5.130;2023-01-15T01:30:10;7.13;;;2.45;;
48727;SDS011;34527;45.618;5.130;2023-01-15T01:32:37;5.30;;;2.33;;
48727;SDS011;34527;45.618;5.130;2023-01-15T01:35:03;7.63;;;2.30;;
48727;SDS011;34527;45.618;5.130;2023-01-15T01:37:29;6.53;;;2.45;;
48727;SDS011;34527;45.618;5.130;2023-01-15T01:39:55;4.38;;;2.00;;
48727;SDS011;34527;45.618;5.130;2023-01-15T01:42:21;7.68;;;2.03;;
48727;SDS011;34527;45.618;5.130;2023-01-15T01:47:17;5.32;;;2.10;;
48727;SDS011;34527;45.618;5.130;2023-01-15T01:50:08;6.32;;;2.33;;
48727;SDS011;34527;45.618;5.130;2023-01-15T01:52:37;5.40;;;1.92;;
48727;SDS011;34527;45.618;5.130;2023-01-15T01:55:13;4.00;;;1.90;;
48727;SDS011;34527;45.618;5.130;2023-01-15T01:57:42;6.50;;;1.90;;
48727;SDS011;34527;45.618;5.130;2023-01-15T02:00:11;6.53;;;1.67;;
48727;SDS011;34527;45.618;5.130;2023-01-15T02:02:39;4.40;;;2.17;;
48727;SDS011;34527;45.618;5.130;2023-01-15T02:05:08;8.38;;;2.35;;
48727;SDS011;34527;45.618;5.130;2023-01-15T02:07:37;8.13;;;1.92;;
48727;SDS011;34527;45.618;5.130;2023-01-15T02:10:04;5.25;;;2.22;;
48727;SDS011;34527;45.618;5.130;2023-01-15T02:12:32;7.40;;;2.30;;
48727;SDS011;34527;45.618;5.130;2023-01-15T02:15:09;7.05;;;2.10;;
48727;SDS011;34527;45.618;5.130;2023-01-15T02:20:54;7.20;;;2.65;;
48727;SDS011;34527;45.618;5.130;2023-01-15T02:28:46;4.80;;;2.42;;
48727;SDS011;34527;45.618;5.130;2023-01-15T02:34:03;4.75;;;2.50;;
48727;SDS011;34527;45.618;5.130;2023-01-15T02:36:36;5.95;;;2.40;;
48727;SDS011;34527;45.618;5.130;2023-01-15T02:39:06;5.43;;;2.70;;
48727;SDS011;34527;45.618;5.130;2023-01-15T02:41:36;10.07;;;3.08;;
48727;SDS011;34527;45.618;5.130;2023-01-15T02:44:12;8.73;;;2.85;;
48727;SDS011;34527;45.618;5.130;2023-01-15T02:46:42;10.30;;;2.60;;
48727;SDS011;34527;45.618;5.130;2023-01-15T02:49:09;6.50;;;2.78;;
48727;SDS011;34527;45.618;5.130;2023-01-15T02:51:40;10.55;;;3.58;;
48727;SDS011;34527;45.618;5.130;2023-01-15T02:54:21;7.25;;;2.88;;
48727;SDS011;34527;45.618;5.130;2023-01-15T02:56:50;6.57;;;2.60;;
48727;SDS011;34527;45.618;5.130;2023-01-15T02:59:19;9.25;;;3.38;;
48727;SDS011;34527;45.618;5.130;2023-01-15T03:01:50;8.23;;;3.13;;
48727;SDS011;34527;45.618;5.130;2023-01-15T03:04:28;9.88;;;3.53;;
48727;SDS011;34527;45.618;5.130;2023-01-15T03:09:43;10.27;;;4.13;;
48727;SDS011;34527;45.618;5.130;2023-01-15T03:12:14;8.75;;;3.30;;
48727;SDS011;34527;45.618;5.130;2023-01-15T03:17:52;11.55;;;3.88;;
48727;SDS011;34527;45.618;5.130;2023-01-15T03:20:19;10.68;;;3.40;;
48727;SDS011;34527;45.618;5.130;2023-01-15T03:22:52;9.93;;;3.58;;
48727;SDS011;34527;45.618;5.130;2023-01-15T03:25:24;5.55;;;3.08;;
48727;SDS011;34527;45.618;5.130;2023-01-15T03:27:58;7.82;;;3.67;;
48727;SDS011;34527;45.618;5.130;2023-01-15T03:30:27;7.35;;;3.45;;
48727;SDS011;34527;45.618;5.130;2023-01-15T03:32:53;8.00;;;3.60;;
48727;SDS011;34527;45.618;5.130;2023-01-15T03:38:08;7.72;;;3.00;;
48727;SDS011;34527;45.618;5.130;2023-01-15T03:40:36;11.60;;;4.28;;
48727;SDS011;34527;45.618;5.130;2023-01-15T03:43:08;11.00;;;3.42;;
48727;SDS011;34527;45.618;5.130;2023-01-15T03:45:57;9.75;;;3.45;;
48727;SDS011;34527;45.618;5.130;2023-01-15T03:48:38;10.73;;;3.80;;
48727;SDS011;34527;45.618;5.130;2023-01-15T03:51:17;8.18;;;3.47;;
48727;SDS011;34527;45.618;5.130;2023-01-15T03:53:48;12.23;;;3.73;;
48727;SDS011;34527;45.618;5.130;2023-01-15T03:58:55;9.80;;;3.72;;
48727;SDS011;34527;45.618;5.130;2023-01-15T04:01:27;9.82;;;3.58;;
48727;SDS011;34527;45.618;5.130;2023-01-15T04:03:58;10.00;;;3.33;;
48727;SDS011;34527;45.618;5.130;2023-01-15T04:06:26;8.82;;;4.22;;
48727;SDS011;34527;45.618;5.130;2023-01-15T04:08:54;9.20;;;4.18;;
48727;SDS011;34527;45.618;5.130;2023-01-15T04:11:22;9.65;;;3.65;;
48727;SDS011;34527;45.618;5.130;2023-01-15T04:13:49;8.73;;;3.65;;
48727;SDS011;34527;45.618;5.130;2023-01-15T04:16:20;14.30;;;4.00;;
48727;SDS011;34527;45.618;5.130;2023-01-15T04:18:52;9.18;;;3.63;;
48727;SDS011;34527;45.618;5.130;2023-01-15T04:21:19;9.20;;;4.10;;
48727;SDS011;34527;45.618;5.130;2023-01-15T04:23:45;10.18;;;3.38;;
48727;SDS011;34527;45.618;5.130;2023-01-15T04:26:12;8.93;;;3.67;;
48727;SDS011;34527;45.618;5.130;2023-01-15T04:28:38;10.32;;;3.40;;
48727;SDS011;34527;45.618;5.130;2023-01-15T04:31:04;8.15;;;3.00;;
48727;SDS011;34527;45.618;5.130;2023-01-15T04:33:30;6.45;;;3.28;;
48727;SDS011;34527;45.618;5.130;2023-01-15T04:35:59;6.70;;;3.08;;
48727;SDS011;34527;45.618;5.130;2023-01-15T04:38:26;6.00;;;2.88;;
48727;SDS011;34527;45.618;5.130;2023-01-15T04:40:52;6.55;;;3.13;;
48727;SDS011;34527;45.618;5.130;2023-01-15T04:43:36;4.45;;;2.97;;
48727;SDS011;34527;45.618;5.130;2023-01-15T04:46:21;6.03;;;2.73;;
48727;SDS011;34527;45.618;5.130;2023-01-15T04:48:48;7.45;;;3.00;;
48727;SDS011;34527;45.618;5.130;2023-01-15T04:51:14;6.68;;;2.42;;
48727;SDS011;34527;45.618;5.130;2023-01-15T04:53:40;8.25;;;2.78;;
48727;SDS011;34527;45.618;5.130;2023-01-15T04:56:06;7.53;;;2.90;;
48727;SDS011;34527;45.618;5.130;2023-01-15T04:58:32;4.40;;;2.30;;
48727;SDS011;34527;45.618;5.130;2023-01-15T05:00:59;5.22;;;2.50;;
48727;SDS011;34527;45.618;5.130;2023-01-15T05:03:28;5.50;;;2.45;;
48727;SDS011;34527;45.618;5.130;2023-01-15T05:05:55;4.43;;;2.30;;
48727;SDS011;34527;45.618;5.130;2023-01-15T05:08:26;6.35;;;2.55;;
48727;SDS011;34527;45.618;5.130;2023-01-15T05:10:52;5.35;;;2.55;;
48727;SDS011;34527;45.618;5.130;2023-01-15T05:13:18;5.72;;;2.83;;
48727;SDS011;34527;45.618;5.130;2023-01-15T05:15:44;6.25;;;2.97;;
48727;SDS011;34527;45.618;5.130;2023-01-15T05:18:11;7.95;;;2.97;;
48727;SDS011;34527;45.618;5.130;2023-01-15T05:20:40;6.93;;;3.38;;
48727;SDS011;34527;45.618;5.130;2023-01-15T05:23:06;9.90;;;4.35;;
48727;SDS011;34527;45.618;5.130;2023-01-15T05:25:35;9.57;;;4.07;;
48727;SDS011;34527;45.618;5.130;2023-01-15T05:28:01;9.88;;;4.15;;
48727;SDS011;34527;45.618;5.130;2023-01-15T05:30:27;11.23;;;4.28;;
48727;SDS011;34527;45.618;5.130;2023-01-15T05:32:52;11.88;;;4.25;;
48727;SDS011;34527;45.618;5.130;2023-01-15T05:35:18;6.47;;;4.07;;
48727;SDS011;34527;45.618;5.130;2023-01-15T05:37:44;9.68;;;4.40;;
48727;SDS011;34527;45.618;5.130;2023-01-15T05:40:10;7.75;;;4.72;;
48727;SDS011;34527;45.618;5.130;2023-01-15T05:42:36;7.95;;;4.32;;
48727;SDS011;34527;45.618;5.130;2023-01-15T05:45:02;12.80;;;4.93;;
48727;SDS011;34527;45.618;5.130;2023-01-15T05:47:28;8.95;;;5.00;;
48727;SDS011;34527;45.618;5.130;2023-01-15T05:49:54;11.23;;;4.78;;
48727;SDS011;34527;45.618;5.130;2023-01-15T05:52:20;12.55;;;5.32;;
48727;SDS011;34527;45.618;5.130;2023-01-15T05:54:47;11.25;;;5.70;;
48727;SDS011;34527;45.618;5.130;2023-01-15T05:57:14;13.30;;;5.95;;
48727;SDS011;34527;45.618;5.130;2023-01-15T05:59:40;13.70;;;6.05;;
48727;SDS011;34527;45.618;5.130;2023-01-15T06:02:06;10.48;;;5.97;;
48727;SDS011;34527;45.618;5.130;2023-01-15T06:04:32;11.35;;;6.43;;
48727;SDS011;34527;45.618;5.130;2023-01-15T06:06:57;11.43;;;6.15;;
48727;SDS011;34527;45.618;5.130;2023-01-15T06:09:24;14.43;;;6.45;;
48727;SDS011;34527;45.618;5.130;2023-01-15T06:11:51;13.57;;;6.55;;
48727;SDS011;34527;45.618;5.130;2023-01-15T06:14:18;18.23;;;7.15;;
48727;SDS011;34527;45.618;5.130;2023-01-15T06:16:44;12.60;;;6.45;;
48727;SDS011;34527;45.618;5.130;2023-01-15T06:19:10;11.88;;;6.30;;
48727;SDS011;34527;45.618;5.130;2023-01-15T06:21:38;11.98;;;6.10;;
48727;SDS011;34527;45.618;5.130;2023-01-15T06:24:04;10.27;;;6.18;;
48727;SDS011;34527;45.618;5.130;2023-01-15T06:26:30;14.88;;;6.20;;
48727;SDS011;34527;45.618;5.130;2023-01-15T06:28:56;8.52;;;5.55;;
48727;SDS011;34527;45.618;5.130;2023-01-15T06:31:22;10.85;;;5.35;;
48727;SDS011;34527;45.618;5.130;2023-01-15T06:33:50;10.02;;;5.50;;
48727;SDS011;34527;45.618;5.130;2023-01-15T06:36:17;13.00;;;5.75;;
48727;SDS011;34527;45.618;5.130;2023-01-15T06:38:46;7.97;;;5.10;;
48727;SDS011;34527;45.618;5.130;2023-01-15T06:41:14;12.10;;;5.47;;
48727;SDS011;34527;45.618;5.130;2023-01-15T06:44:00;7.97;;;5.30;;
48727;SDS011;34527;45.618;5.130;2023-01-15T06:46:46;12.38;;;5.72;;
48727;SDS011;34527;45.618;5.130;2023-01-15T06:49:31;10.63;;;5.20;;
48727;SDS011;34527;45.618;5.130;2023-01-15T06:51:58;12.93;;;5.53;;
48727;SDS011;34527;45.618;5.130;2023-01-15T06:54:25;10.13;;;4.82;;
48727;SDS011;34527;45.618;5.130;2023-01-15T06:56:51;9.07;;;5.43;;
48727;SDS011;34527;45.618;5.130;2023-01-15T06:59:18;11.52;;;5.50;;
48727;SDS011;34527;45.618;5.130;2023-01-15T07:01:44;13.82;;;5.57;;
48727;SDS011;34527;45.618;5.130;2023-01-15T07:04:10;14.80;;;6.75;;
48727;SDS011;34527;45.618;5.130;2023-01-15T07:06:36;16.65;;;8.35;;
48727;SDS011;34527;45.618;5.130;2023-01-15T07:09:02;15.15;;;8.70;;
48727;SDS011;34527;45.618;5.130;2023-01-15T07:11:28;13.35;;;7.30;;
48727;SDS011;34527;45.618;5.130;2023-01-15T07:13:54;13.25;;;6.68;;
48727;SDS011;34527;45.618;5.130;2023-01-15T07:16:33;13.38;;;7.28;;
48727;SDS011;34527;45.618;5.130;2023-01-15T07:19:00;11.57;;;6.25;;
48727;SDS011;34527;45.618;5.130;2023-01-15T07:21:27;12.88;;;6.50;;
48727;SDS011;34527;45.618;5.130;2023-01-15T07:23:53;14.50;;;6.70;;
48727;SDS011;34527;45.618;5.130;2023-01-15T07:26:22;10.10;;;6.40;;
48727;SDS011;34527;45.618;5.130;2023-01-15T07:28:48;10.38;;;6.53;;
48727;SDS011;34527;45.618;5.130;2023-01-15T07:31:14;11.30;;;5.82;;
48727;SDS011;34527;45.618;5.130;2023-01-15T07:33:40;11.93;;;6.25;;
48727;SDS011;34527;45.618;5.130;2023-01-15T07:36:06;9.85;;;5.97;;
48727;SDS011;34527;45.618;5.130;2023-01-15T07:38:32;12.65;;;5.93;;
48727;SDS011;34527;45.618;5.130;2023-01-15T07:40:58;12.18;;;5.97;;
48727;SDS011;34527;45.618;5.130;2023-01-15T07:43:43;9.55;;;5.32;;
48727;SDS011;34527;45.618;5.130;2023-01-15T07:46:28;14.77;;;6.50;;
48727;SDS011;34527;45.618;5.130;2023-01-15T07:49:12;9.32;;;5.93;;
48727;SDS011;34527;45.618;5.130;2023-01-15T07:51:57;11.80;;;5.88;;
48727;SDS011;34527;45.618;5.130;2023-01-15T07:54:24;12.20;;;6.32;;
48727;SDS011;34527;45.618;5.130;2023-01-15T07:56:50;15.00;;;5.97;;
48727;SDS011;34527;45.618;5.130;2023-01-15T07:59:18;16.77;;;6.60;;
48727;SDS011;34527;45.618;5.130;2023-01-15T08:01:44;14.30;;;7.32;;
48727;SDS011;34527;45.618;5.130;2023-01-15T08:04:10;13.68;;;6.45;;
48727;SDS011;34527;45.618;5.130;2023-01-15T08:06:36;8.45;;;5.38;;
48727;SDS011;34527;45.618;5.130;2023-01-15T08:09:02;9.43;;;5.50;;
48727;SDS011;34527;45.618;5.130;2023-01-15T08:11:28;10.05;;;5.15;;
48727;SDS011;34527;45.618;5.130;2023-01-15T08:14:12;9.98;;;5.40;;
48727;SDS011;34527;45.618;5.130;2023-01-15T08:16:57;5.85;;;3.50;;
48727;SDS011;34527;45.618;5.130;2023-01-15T08:19:23;5.88;;;2.65;;
48727;SDS011;34527;45.618;5.130;2023-01-15T08:21:49;3.40;;;1.95;;
48727;SDS011;34527;45.618;5.130;2023-01-15T08:24:15;3.10;;;1.70;;
48727;SDS011;34527;45.618;5.130;2023-01-15T08:26:41;2.30;;;1.60;;
48727;SDS011;34527;45.618;5.130;2023-01-15T08:29:07;1.33;;;1.20;;
48727;SDS011;34527;45.618;5.130;2023-01-15T08:31:33;3.42;;;1.75;;
48727;SDS011;34527;45.618;5.130;2023-01-15T08:34:01;1.23;;;1.13;;
48727;SDS011;34527;45.618;5.130;2023-01-15T08:36:27;1.95;;;1.30;;
48727;SDS011;34527;45.618;5.130;2023-01-15T08:38:53;0.73;;;0.70;;
48727;SDS011;34527;45.618;5.130;2023-01-15T08:41:19;0.90;;;0.82;;
48727;SDS011;34527;45.618;5.130;2023-01-15T08:43:45;0.68;;;0.55;;
48727;SDS011;34527;45.618;5.130;2023-01-15T08:46:10;1.27;;;0.80;;
48727;SDS011;34527;45.618;5.130;2023-01-15T08:48:36;1.10;;;0.77;;
48727;SDS011;34527;45.618;5.130;2023-01-15T08:51:06;0.65;;;0.57;;
48727;SDS011;34527;45.618;5.130;2023-01-15T08:53:33;1.85;;;0.70;;
48727;SDS011;34527;45.618;5.130;2023-01-15T08:56:00;0.40;;;0.40;;
48727;SDS011;34527;45.618;5.130;2023-01-15T08:58:27;0.47;;;0.47;;
48727;SDS011;34527;45.618;5.130;2023-01-15T09:00:54;0.95;;;0.40;;
48727;SDS011;34527;45.618;5.130;2023-01-15T09:03:20;1.05;;;0.60;;
48727;SDS011;34527;45.618;5.130;2023-01-15T09:05:46;0.35;;;0.30;;
48727;SDS011;34527;45.618;5.130;2023-01-15T09:08:12;0.50;;;0.40;;
48727;SDS011;34527;45.618;5.130;2023-01-15T09:10:38;0.88;;;0.50;;
48727;SDS011;34527;45.618;5.130;2023-01-15T09:13:04;0.80;;;0.65;;
48727;SDS011;34527;45.618;5.130;2023-01-15T09:15:31;0.60;;;0.60;;
48727;SDS011;34527;45.618;5.130;2023-01-15T09:17:57;0.38;;;0.38;;
48727;SDS011;34527;45.618;5.130;2023-01-15T09:20:24;1.73;;;0.85;;
48727;SDS011;34527;45.618;5.130;2023-01-15T09:22:51;2.47;;;0.70;;
48727;SDS011;34527;45.618;5.130;2023-01-15T09:25:16;1.60;;;0.60;;
48727;SDS011;34527;45.618;5.130;2023-01-15T09:27:44;1.30;;;0.60;;
48727;SDS011;34527;45.618;5.130;2023-01-15T09:30:15;0.88;;;0.85;;
48727;SDS011;34527;45.618;5.130;2023-01-15T09:32:43;1.35;;;0.68;;
48727;SDS011;34527;45.618;5.130;2023-01-15T09:35:09;0.60;;;0.60;;
48727;SDS011;34527;45.618;5.130;2023-01-15T09:37:34;0.50;;;0.50;;
48727;SDS011;34527;45.618;5.130;2023-01-15T09:40:00;1.90;;;0.80;;
48727;SDS011;34527;45.618;5.130;2023-01-15T09:48:13;0.75;;;0.75;;
48727;SDS011;34527;45.618;5.130;2023-01-15T09:50:53;1.83;;;1.20;;
48727;SDS011;34527;45.618;5.130;2023-01-15T09:55:55;2.55;;;1.00;;
48727;SDS011;34527;45.618;5.130;2023-01-15T09:58:26;2.03;;;1.52;;
48727;SDS011;34527;45.618;5.130;2023-01-15T10:01:01;1.38;;;1.27;;
48727;SDS011;34527;45.618;5.130;2023-01-15T10:03:29;2.00;;;1.50;;
48727;SDS011;34527;45.618;5.130;2023-01-15T10:08:39;1.27;;;0.98;;
48727;SDS011;34527;45.618;5.130;2023-01-15T10:13:50;1.27;;;0.80;;
48727;SDS011;34527;45.618;5.130;2023-01-15T10:16:24;0.60;;;0.60;;
48727;SDS011;34527;45.618;5.130;2023-01-15T10:18:52;0.93;;;0.80;;
48727;SDS011;34527;45.618;5.130;2023-01-15T10:31:53;1.25;;;1.15;;
48727;SDS011;34527;45.618;5.130;2023-01-15T10:37:05;2.10;;;1.50;;
48727;SDS011;34527;45.618;5.130;2023-01-15T10:45:23;0.70;;;0.70;;
48727;SDS011;34527;45.618;5.130;2023-01-15T10:50:41;0.90;;;0.80;;
48727;SDS011;34527;45.618;5.130;2023-01-15T10:53:28;1.15;;;0.80;;
48727;SDS011;34527;45.618;5.130;2023-01-15T10:56:04;0.70;;;0.60;;
48727;SDS011;34527;45.618;5.130;2023-01-15T11:01:46;1.33;;;1.00;;
48727;SDS011;34527;45.618;5.130;2023-01-15T11:04:15;2.17;;;1.27;;
48727;SDS011;34527;45.618;5.130;2023-01-15T11:06:41;1.05;;;0.80;;
48727;SDS011;34527;45.618;5.130;2023-01-15T11:09:08;0.90;;;0.90;;
48727;SDS011;34527;45.618;5.130;2023-01-15T11:14:42;1.15;;;1.05;;
48727;SDS011;34527;45.618;5.130;2023-01-15T11:17:29;3.15;;;1.40;;
48727;SDS011;34527;45.618;5.130;2023-01-15T11:20:31;0.82;;;0.82;;
48727;SDS011;34527;45.618;5.130;2023-01-15T11:23:06;1.20;;;0.82;;
48727;SDS011;34527;45.618;5.130;2023-01-15T11:28:01;1.63;;;0.65;;
48727;SDS011;34527;45.618;5.130;2023-01-15T11:30:31;1.23;;;0.80;;
48727;SDS011;34527;45.618;5.130;2023-01-15T11:33:01;0.70;;;0.70;;
48727;SDS011;34527;45.618;5.130;2023-01-15T11:35:28;0.50;;;0.50;;
48727;SDS011;34527;45.618;5.130;2023-01-15T11:43:57;1.88;;;0.70;;
48727;SDS011;34527;45.618;5.130;2023-01-15T11:46:44;2.70;;;1.50;;
48727;SDS011;34527;45.618;5.130;2023-01-15T11:49:29;1.00;;;0.90;;
48727;SDS011;34527;45.618;5.130;2023-01-15T11:52:22;1.13;;;0.88;;
48727;SDS011;34527;45.618;5.130;2023-01-15T11:54:51;5.95;;;4.40;;
48727;SDS011;34527;45.618;5.130;2023-01-15T11:57:23;19.60;;;13.27;;
48727;SDS011;34527;45.618;5.130;2023-01-15T11:59:55;5.18;;;3.70;;
48727;SDS011;34527;45.618;5.130;2023-01-15T12:02:26;6.05;;;3.70;;
48727;SDS011;34527;45.618;5.130;2023-01-15T12:04:56;4.60;;;3.45;;
48727;SDS011;34527;45.618;5.130;2023-01-15T12:07:24;7.03;;;5.00;;
48727;SDS011;34527;45.618;5.130;2023-01-15T12:09:56;9.25;;;6.30;;
48727;SDS011;34527;45.618;5.130;2023-01-15T12:12:57;7.43;;;5.55;;
48727;SDS011;34527;45.618;5.130;2023-01-15T12:15:41;5.25;;;3.70;;
48727;SDS011;34527;45.618;5.130;2023-01-15T12:18:21;4.78;;;3.17;;
48727;SDS011;34527;45.618;5.130;2023-01-15T12:24:17;5.15;;;3.45;;
48727;SDS011;34527;45.618;5.130;2023-01-15T12:30:02;5.38;;;4.38;;
48727;SDS011;34527;45.618;5.130;2023-01-15T12:32:39;5.65;;;4.90;;
48727;SDS011;34527;45.618;5.130;2023-01-15T12:35:41;7.10;;;5.35;;
48727;SDS011;34527;45.618;5.130;2023-01-15T12:38:04;8.90;;;6.07;;
48727;SDS011;34527;45.618;5.130;2023-01-15T12:40:50;5.43;;;4.45;;
48727;SDS011;34527;45.618;5.130;2023-01-15T12:43:24;8.57;;;5.25;;
48727;SDS011;34527;45.618;5.130;2023-01-15T12:46:10;8.05;;;5.65;;
48727;SDS011;34527;45.618;5.130;2023-01-15T12:51:18;8.07;;;5.07;;
48727;SDS011;34527;45.618;5.130;2023-01-15T12:53:51;6.20;;;4.22;;
48727;SDS011;34527;45.618;5.130;2023-01-15T12:56:41;4.47;;;3.35;;
48727;SDS011;34527;45.618;5.130;2023-01-15T12:59:19;3.53;;;2.90;;
48727;SDS011;34527;45.618;5.130;2023-01-15T13:01:53;3.90;;;3.05;;
48727;SDS011;34527;45.618;5.130;2023-01-15T13:04:29;4.15;;;3.10;;
48727;SDS011;34527;45.618;5.130;2023-01-15T13:07:17;2.97;;;2.40;;
48727;SDS011;34527;45.618;5.130;2023-01-15T13:12:41;4.20;;;3.55;;
48727;SDS011;34527;45.618;5.130;2023-01-15T13:15:10;3.20;;;2.90;;
48727;SDS011;34527;45.618;5.130;2023-01-15T13:20:51;7.68;;;3.30;;
48727;SDS011;34527;45.618;5.130;2023-01-15T13:23:26;5.45;;;4.10;;
48727;SDS011;34527;45.618;5.130;2023-01-15T13:28:39;6.93;;;5.10;;
48727;SDS011;34527;45.618;5.130;2023-01-15T13:31:33;5.88;;;4.43;;
48727;SDS011;34527;45.618;5.130;2023-01-15T13:34:03;4.75;;;3.85;;
48727;SDS011;34527;45.618;5.130;2023-01-15T13:36:38;4.55;;;3.38;;
48727;SDS011;34527;45.618;5.130;2023-01-15T13:39:13;5.55;;;3.65;;
48727;SDS011;34527;45.618;5.130;2023-01-15T13:44:31;4.57;;;3.08;;
48727;SDS011;34527;45.618;5.130;2023-01-15T13:47:02;3.08;;;2.60;;
48727;SDS011;34527;45.618;5.130;2023-01-15T13:49:34;3.85;;;3.05;;
48727;SDS011;34527;45.618;5.130;2023-01-15T13:52:05;4.07;;;2.80;;
48727;SDS011;34527;45.618;5.130;2023-01-15T13:54:43;3.97;;;3.33;;
48727;SDS011;34527;45.618;5.130;2023-01-15T13:57:18;5.85;;;3.25;;
48727;SDS011;34527;45.618;5.130;2023-01-15T13:59:56;3.28;;;2.75;;
48727;SDS011;34527;45.618;5.130;2023-01-15T14:02:32;5.18;;;3.35;;
48727;SDS011;34527;45.618;5.130;2023-01-15T14:05:23;6.38;;;3.53;;
48727;SDS011;34527;45.618;5.130;2023-01-15T14:07:50;5.63;;;3.30;;
48727;SDS011;34527;45.618;5.130;2023-01-15T14:12:47;5.20;;;3.65;;
48727;SDS011;34527;45.618;5.130;2023-01-15T14:20:53;5.95;;;3.65;;
48727;SDS011;34527;45.618;5.130;2023-01-15T14:26:29;5.30;;;4.18;;
48727;SDS011;34527;45.618;5.130;2023-01-15T14:31:41;10.00;;;6.57;;
48727;SDS011;34527;45.618;5.130;2023-01-15T14:34:17;6.60;;;4.97;;
48727;SDS011;34527;45.618;5.130;2023-01-15T14:39:27;8.00;;;4.80;;
48727;SDS011;34527;45.618;5.130;2023-01-15T14:42:00;4.95;;;3.83;;
48727;SDS011;34527;45.618;5.130;2023-01-15T14:44:54;6.03;;;3.05;;
48727;SDS011;34527;45.618;5.130;2023-01-15T14:47:43;4.82;;;3.05;;
48727;SDS011;34527;45.618;5.130;2023-01-15T14:58:15;4.47;;;3.10;;
48727;SDS011;34527;45.618;5.130;2023-01-15T15:06:56;3.58;;;2.72;;
48727;SDS011;34527;45.618;5.130;2023-01-15T15:09:32;4.22;;;2.80;;
48727;SDS011;34527;45.618;5.130;2023-01-15T15:12:15;4.75;;;3.45;;
48727;SDS011;34527;45.618;5.130;2023-01-15T15:15:04;7.50;;;5.40;;
48727;SDS011;34527;45.618;5.130;2023-01-15T15:17:39;7.97;;;4.28;;
48727;SDS011;34527;45.618;5.130;2023-01-15T15:20:22;6.68;;;4.75;;
48727;SDS011;34527;45.618;5.130;2023-01-15T15:23:08;6.50;;;4.72;;
48727;SDS011;34527;45.618;5.130;2023-01-15T15:25:53;5.88;;;4.38;;
48727;SDS011;34527;45.618;5.130;2023-01-15T15:28:21;6.20;;;4.22;;
48727;SDS011;34527;45.618;5.130;2023-01-15T15:30:47;7.28;;;5.15;;
48727;SDS011;34527;45.618;5.130;2023-01-15T15:33:17;7.25;;;5.05;;
48727;SDS011;34527;45.618;5.130;2023-01-15T15:35:49;8.50;;;5.25;;
48727;SDS011;34527;45.618;5.130;2023-01-15T15:38:18;7.25;;;4.70;;
48727;SDS011;34527;45.618;5.130;2023-01-15T15:40:48;8.15;;;4.97;;
48727;SDS011;34527;45.618;5.130;2023-01-15T15:43:38;8.13;;;5.50;;
48727;SDS011;34527;45.618;5.130;2023-01-15T15:46:35;7.30;;;4.93;;
48727;SDS011;34527;45.618;5.130;2023-01-15T15:49:19;9.25;;;6.30;;
48727;SDS011;34527;45.618;5.130;2023-01-15T15:51:52;22.85;;;16.15;;
48727;SDS011;34527;45.618;5.130;2023-01-15T15:54:22;25.95;;;18.58;;
48727;SDS011;34527;45.618;5.130;2023-01-15T15:59:33;14.82;;;10.32;;
48727;SDS011;34527;45.618;5.130;2023-01-15T16:02:15;18.48;;;13.20;;
48727;SDS011;34527;45.618;5.130;2023-01-15T16:04:59;18.20;;;12.75;;
48727;SDS011;34527;45.618;5.130;2023-01-15T16:07:27;10.80;;;8.25;;
48727;SDS011;34527;45.618;5.130;2023-01-15T16:09:58;19.13;;;12.90;;
48727;SDS011;34527;45.618;5.130;2023-01-15T16:12:32;19.23;;;13.00;;
48727;SDS011;34527;45.618;5.130;2023-01-15T16:15:00;19.20;;;12.15;;
48727;SDS011;34527;45.618;5.130;2023-01-15T16:17:28;47.97;;;24.45;;
48727;SDS011;34527;45.618;5.130;2023-01-15T16:19:54;15.60;;;9.00;;
48727;SDS011;34527;45.618;5.130;2023-01-15T16:22:21;13.43;;;8.50;;
48727;SDS011;34527;45.618;5.130;2023-01-15T16:24:57;12.40;;;7.47;;
48727;SDS011;34527;45.618;5.130;2023-01-15T16:27:27;17.95;;;10.65;;
48727;SDS011;34527;45.618;5.130;2023-01-15T16:29:59;49.80;;;28.98;;
48727;SDS011;34527;45.618;5.130;2023-01-15T16:32:26;31.67;;;19.58;;
48727;SDS011;34527;45.618;5.130;2023-01-15T16:34:59;24.75;;;14.00;;
48727;SDS011;34527;45.618;5.130;2023-01-15T16:37:31;19.88;;;14.75;;
48727;SDS011;34527;45.618;5.130;2023-01-15T16:40:00;35.13;;;21.45;;
48727;SDS011;34527;45.618;5.130;2023-01-15T16:42:36;29.35;;;19.15;;
48727;SDS011;34527;45.618;5.130;2023-01-15T16:45:22;25.30;;;15.90;;
48727;SDS011;34527;45.618;5.130;2023-01-15T16:50:38;16.48;;;11.40;;
48727;SDS011;34527;45.618;5.130;2023-01-15T16:53:27;14.30;;;10.15;;
48727;SDS011;34527;45.618;5.130;2023-01-15T16:55:54;25.25;;;18.45;;
48727;SDS011;34527;45.618;5.130;2023-01-15T16:58:37;39.97;;;24.17;;
48727;SDS011;34527;45.618;5.130;2023-01-15T17:03:56;54.30;;;30.88;;
48727;SDS011;34527;45.618;5.130;2023-01-15T17:06:23;49.17;;;28.67;;
48727;SDS011;34527;45.618;5.130;2023-01-15T17:08:51;41.35;;;25.85;;
48727;SDS011;34527;45.618;5.130;2023-01-15T17:11:23;37.90;;;23.73;;
48727;SDS011;34527;45.618;5.130;2023-01-15T17:14:05;33.92;;;22.20;;
48727;SDS011;34527;45.618;5.130;2023-01-15T17:19:51;31.83;;;17.20;;
48727;SDS011;34527;45.618;5.130;2023-01-15T17:22:25;22.02;;;13.38;;
48727;SDS011;34527;45.618;5.130;2023-01-15T17:24:54;19.52;;;10.15;;